Time;durP1;ratioP1;P1;durP2;ratioP2;P2;SDS_P1;SDS_P2;PMS_P1;PMS_P2;Temp;Humidity;BMP_temperature;BMP_pressure;BME280_temperature;BME280_humidity;BME280_pressure;Samples;Min_cycle;Max_cycle;Signal;HPM_P1;HPM_P2
2021/12/03 00:00:08;;;;;;;20.00;5.43;;;;;;;5.36;71.97;101015.13;5066110;28;20048;-68
2021/12/03 00:02:35;;;;;;;22.30;5.15;;;;;;;5.13;72.34;101008.25;5062302;28;20515;-68
2021/12/03 00:05:03;;;;;;;15.38;4.90;;;;;;;5.18;71.77;101002.81;5070759;28;20063;-67
2021/12/03 00:07:37;;;;;;;15.52;5.90;;;;;;;4.88;72.71;101013.66;5062549;28;20053;-67
2021/12/03 00:10:06;;;;;;;18.00;5.30;;;;;;;4.72;73.30;101003.81;5057019;28;20060;-66
2021/12/03 00:12:34;;;;;;;19.67;6.35;;;;;;;4.78;73.50;100999.19;5055164;28;20076;-67
2021/12/03 00:15:03;;;;;;;16.15;5.50;;;;;;;4.89;73.32;101009.03;5055649;28;20049;-67
2021/12/03 00:17:30;;;;;;;13.98;5.38;;;;;;;4.77;73.28;101009.28;5056840;28;22697;-67
2021/12/03 00:19:57;;;;;;;18.25;6.18;;;;;;;4.94;73.04;101011.75;5055007;28;20037;-66
2021/12/03 00:22:25;;;;;;;15.95;5.70;;;;;;;4.89;72.85;101009.84;5055155;28;20072;-66
2021/12/03 00:24:52;;;;;;;14.55;5.72;;;;;;;4.85;72.77;101011.47;5057099;28;20393;-67
2021/12/03 00:27:19;;;;;;;18.77;6.18;;;;;;;4.72;73.72;101005.69;5055792;28;20060;-66
2021/12/03 00:29:47;;;;;;;16.67;5.95;;;;;;;4.87;73.17;101005.75;5036898;28;20057;-67
2021/12/03 00:32:14;;;;;;;20.88;6.22;;;;;;;4.82;73.22;101008.47;5054933;28;20067;-66
2021/12/03 00:34:41;;;;;;;22.48;6.00;;;;;;;4.80;73.50;101003.28;5055896;28;20057;-66
2021/12/03 00:37:09;;;;;;;20.90;6.57;;;;;;;4.87;73.43;101008.47;5073867;28;20057;-66
2021/12/03 00:39:36;;;;;;;20.92;6.20;;;;;;;5.02;72.54;100997.59;5086231;28;20044;-67
2021/12/03 00:42:05;;;;;;;17.65;6.97;;;;;;;5.05;72.38;101000.63;5078646;28;20041;-66
2021/12/03 00:44:32;;;;;;;20.45;6.22;;;;;;;4.81;72.75;101004.09;5057294;28;20053;-66
2021/12/03 00:46:59;;;;;;;18.80;6.88;;;;;;;4.58;73.88;101011.63;5058637;28;20049;-66
2021/12/03 00:49:27;;;;;;;17.30;6.35;;;;;;;4.72;73.43;101017.44;5057446;28;20052;-67
2021/12/03 00:51:54;;;;;;;22.17;6.97;;;;;;;4.26;74.71;101021.88;5040769;28;20060;-66
2021/12/03 00:54:21;;;;;;;20.67;6.25;;;;;;;4.37;74.50;101022.75;5058687;28;20526;-67
2021/12/03 00:56:49;;;;;;;16.02;6.30;;;;;;;4.65;73.76;101018.78;5040368;28;20059;-66
2021/12/03 00:59:16;;;;;;;23.17;8.13;;;;;;;4.71;73.54;101017.72;5056475;28;20404;-66
2021/12/03 01:01:43;;;;;;;15.93;6.38;;;;;;;4.93;72.97;101023.78;5058558;28;20064;-67
2021/12/03 01:04:11;;;;;;;15.02;5.75;;;;;;;4.73;72.88;101020.97;5058330;28;20052;-67
2021/12/03 01:06:38;;;;;;;21.40;6.25;;;;;;;4.81;72.94;101021.31;5058165;28;20056;-66
2021/12/03 01:09:05;;;;;;;17.38;6.50;;;;;;;4.74;72.76;101022.63;5057960;28;20052;-67
2021/12/03 01:11:33;;;;;;;22.30;6.85;;;;;;;4.70;73.15;101026.97;5077588;28;20049;-66
2021/12/03 01:14:01;;;;;;;18.48;6.53;;;;;;;4.49;73.89;101026.91;5072198;28;20056;-66
2021/12/03 01:16:29;;;;;;;21.70;6.15;;;;;;;4.70;73.48;101026.97;5064024;28;20061;-65
2021/12/03 01:18:57;;;;;;;16.70;6.22;;;;;;;4.77;73.25;101038.47;5057709;28;20052;-66
2021/12/03 01:21:25;;;;;;;18.23;6.25;;;;;;;4.87;72.63;101046.69;5069183;28;20040;-66
2021/12/03 01:23:53;;;;;;;20.00;6.30;;;;;;;4.69;73.25;101041.72;5076731;28;20052;-65
2021/12/03 01:26:21;;;;;;;15.63;6.50;;;;;;;4.74;73.02;101044.47;5075820;28;20052;-66
2021/12/03 01:28:49;;;;;;;22.30;8.40;;;;;;;4.82;72.90;101043.94;5057520;28;20052;-66
2021/12/03 01:31:17;;;;;;;22.02;8.07;;;;;;;4.88;72.92;101040.94;5039877;28;20064;-66
2021/12/03 01:33:45;;;;;;;27.58;13.55;;;;;;;5.19;72.27;101041.88;5040062;28;20048;-66
2021/12/03 01:36:13;;;;;;;25.65;9.93;;;;;;;4.93;71.82;101045.63;5056314;28;20053;-65
2021/12/03 01:38:41;;;;;;;19.80;6.53;;;;;;;4.77;73.02;101049.38;5044188;28;20060;-66
2021/12/03 01:41:08;;;;;;;19.48;6.13;;;;;;;4.52;73.67;101045.47;5070962;28;20543;-65
2021/12/03 01:43:36;;;;;;;18.85;6.13;;;;;;;4.50;74.14;101050.34;5060339;28;20373;-67
2021/12/03 01:46:06;;;;;;;17.08;6.00;;;;;;;4.58;74.21;101055.28;5077197;28;20434;-66
2021/12/03 01:48:35;;;;;;;16.65;5.97;;;;;;;4.64;74.12;101067.06;5077267;28;20048;-66
2021/12/03 01:51:04;;;;;;;14.63;5.45;;;;;;;4.68;73.77;101067.34;5065426;28;20385;-66
2021/12/03 01:53:34;;;;;;;16.83;5.30;;;;;;;4.55;74.03;101061.28;5056088;28;20049;-66
2021/12/03 01:56:07;;;;;;;16.88;5.90;;;;;;;4.39;75.14;101064.22;5056070;28;20440;-65
2021/12/03 01:58:34;;;;;;;18.98;5.65;;;;;;;4.60;74.26;101071.41;5057099;28;20416;-67
2021/12/03 02:01:07;;;;;;;18.42;5.47;;;;;;;4.68;73.64;101070.91;5057375;28;20428;-66
2021/12/03 02:03:35;;;;;;;15.98;6.32;;;;;;;4.86;73.40;101061.41;5057382;28;20562;-65
2021/12/03 02:06:05;;;;;;;20.95;5.93;;;;;;;4.84;73.46;101061.69;5055781;28;20052;-66
2021/12/03 02:08:33;;;;;;;15.05;5.35;;;;;;;4.84;73.79;101058.97;5057184;28;20049;-67
2021/12/03 02:11:01;;;;;;;16.88;5.40;;;;;;;4.68;73.36;101064.59;5064486;28;20052;-66
2021/12/03 02:13:28;;;;;;;15.20;5.35;;;;;;;4.87;73.67;101052.97;5077266;28;20051;-66
2021/12/03 02:15:56;;;;;;;16.67;5.50;;;;;;;4.97;72.88;101058.44;5063920;28;20057;-68
2021/12/03 02:18:23;;;;;;;23.70;5.90;;;;;;;4.87;73.21;101055.69;5055976;28;20049;-66
2021/12/03 02:20:53;;;;;;;19.73;5.57;;;;;;;4.71;73.38;101047.72;5055586;28;20073;-66
2021/12/03 02:23:22;;;;;;;15.82;5.72;;;;;;;4.48;74.27;101062.63;5055249;28;20064;-66
2021/12/03 02:25:49;;;;;;;20.02;6.07;;;;;;;4.52;74.63;101067.28;5056733;28;20056;-67
2021/12/03 02:28:20;;;;;;;19.02;5.65;;;;;;;4.48;74.22;101055.25;5054985;28;20049;-66
2021/12/03 02:30:48;;;;;;;16.63;5.70;;;;;;;4.63;73.76;101059.13;5038973;28;20129;-66
2021/12/03 02:33:16;;;;;;;16.83;6.15;;;;;;;4.56;73.67;101060.22;5055295;28;20049;-65
2021/12/03 02:35:45;;;;;;;13.38;5.28;;;;;;;4.47;73.69;101055.50;5067694;28;20048;-66
2021/12/03 02:38:16;;;;;;;14.23;5.82;;;;;;;4.67;73.87;101057.53;5074997;28;20060;-65
2021/12/03 02:40:46;;;;;;;14.82;5.20;;;;;;;4.81;72.95;101056.78;5083354;28;20041;-65
2021/12/03 02:43:14;;;;;;;;;;;;;;;4.86;72.91;101053.22;5055709;28;20076;-66
2021/12/03 02:45:41;;;;;;;15.82;5.93;;;;;;;4.87;73.10;101050.22;5055036;28;20386;-67
2021/12/03 02:48:09;;;;;;;13.07;5.10;;;;;;;4.87;72.86;101052.97;5056237;28;20053;-66
2021/12/03 02:50:37;;;;;;;13.70;4.88;;;;;;;4.72;73.65;101049.34;5056077;28;20052;-66
2021/12/03 02:53:05;;;;;;;14.50;5.13;;;;;;;4.99;72.85;101050.00;5071503;28;20053;-66
2021/12/03 02:55:32;;;;;;;14.35;5.05;;;;;;;4.73;72.73;101034.63;5075890;28;20059;-67
2021/12/03 02:58:00;;;;;;;16.95;5.32;;;;;;;4.65;73.60;101040.59;5074348;28;20052;-67
2021/12/03 03:00:28;;;;;;;15.13;5.40;;;;;;;4.80;73.14;101024.28;5074315;28;20040;-66
2021/12/03 03:02:56;;;;;;;14.23;4.85;;;;;;;4.69;73.40;101017.97;5075892;28;20056;-66
2021/12/03 03:05:25;;;;;;;14.35;5.20;;;;;;;4.76;73.32;101018.53;5075590;28;20056;-66
2021/12/03 03:07:53;;;;;;;16.60;5.10;;;;;;;4.93;72.79;101008.25;5075771;28;20210;-66
2021/12/03 03:10:26;;;;;;;18.20;6.25;;;;;;;4.74;73.29;101009.81;5057460;28;20051;-66
2021/12/03 03:12:54;;;;;;;14.93;5.55;;;;;;;4.69;73.24;101011.72;5061104;28;20059;-66
2021/12/03 03:15:21;;;;;;;20.33;5.70;;;;;;;4.74;72.98;101011.72;5067057;28;20049;-66
2021/12/03 03:17:49;;;;;;;14.13;5.45;;;;;;;4.87;72.71;101003.84;5054274;28;20060;-66
2021/12/03 03:20:17;;;;;;;13.73;4.82;;;;;;;5.00;72.18;101000.59;5054574;28;20041;-65
2021/12/03 03:22:47;;;;;;;20.60;5.28;;;;;;;5.05;72.08;101002.53;5054373;28;20049;-66
2021/12/03 03:25:16;;;;;;;13.65;5.32;;;;;;;5.08;71.72;101001.97;5038779;28;20052;-66
2021/12/03 03:27:44;;;;;;;15.63;4.95;;;;;;;5.13;71.38;100996.50;5058655;28;20047;-66
2021/12/03 03:30:13;;;;;;;17.98;5.05;;;;;;;5.07;71.64;100997.63;5075676;28;20072;-66
2021/12/03 03:32:41;;;;;;;15.27;5.15;;;;;;;5.13;71.38;101000.06;5069728;28;20041;-67
2021/12/03 03:35:09;;;;;;;11.30;4.13;;;;;;;5.18;71.17;101000.06;5054884;28;20053;-66
2021/12/03 03:37:37;;;;;;;13.43;4.10;;;;;;;5.14;71.31;101009.09;5055128;28;20068;-66
2021/12/03 03:40:06;;;;;;;21.67;8.98;;;;;;;5.06;71.20;101009.59;5081669;28;20044;-67
2021/12/03 03:42:34;;;;;;;31.58;10.95;;;;;;;5.11;71.32;101012.38;5086464;28;20056;-67
2021/12/03 03:45:08;;;;;;;19.48;6.70;;;;;;;5.23;71.33;101010.22;5037757;28;20053;-67
2021/12/03 03:47:37;;;;;;;10.30;4.85;;;;;;;5.26;70.94;100999.56;5038172;28;20360;-66
2021/12/03 03:50:06;;;;;;;40.67;18.17;;;;;;;5.26;70.44;100994.09;5054100;28;20049;-68
2021/12/03 03:52:36;;;;;;;34.20;12.60;;;;;;;5.20;70.70;101000.63;5053968;28;20052;-67
2021/12/03 03:55:04;;;;;;;19.15;4.00;;;;;;;5.33;70.56;101011.03;5070855;28;20063;-66
2021/12/03 03:57:31;;;;;;;12.07;4.75;;;;;;;5.24;69.94;101000.91;5057105;28;20060;-67
2021/12/03 03:59:58;;;;;;;11.60;3.97;;;;;;;5.14;70.75;101001.72;5061352;28;20051;-67
2021/12/03 04:02:26;;;;;;;9.77;3.70;;;;;;;5.15;70.39;100999.81;5071296;28;20057;-67
2021/12/03 04:04:53;;;;;;;12.27;4.75;;;;;;;5.13;70.62;100993.78;5055061;28;20056;-67
2021/12/03 04:07:20;;;;;;;13.55;3.80;;;;;;;5.06;70.89;101001.41;5053230;28;20539;-66
2021/12/03 04:09:48;;;;;;;13.70;3.70;;;;;;;4.98;70.95;100986.41;5055491;28;20048;-66
2021/12/03 04:12:16;;;;;;;10.20;4.45;;;;;;;4.89;70.88;101000.84;5057559;28;20400;-67
2021/12/03 04:14:43;;;;;;;18.13;4.38;;;;;;;4.70;71.42;100997.78;5075662;28;20048;-67
2021/12/03 04:17:10;;;;;;;15.15;3.92;;;;;;;4.59;72.06;100986.03;5058114;28;20546;-66
2021/12/03 04:19:37;;;;;;;14.88;4.50;;;;;;;4.63;72.13;100978.13;5058042;28;20049;-66
2021/12/03 04:22:05;;;;;;;11.70;4.15;;;;;;;4.98;71.12;100967.31;5080024;28;20067;-67
2021/12/03 04:24:33;;;;;;;14.65;3.90;;;;;;;4.85;71.04;100976.00;5076356;28;20060;-65
2021/12/03 04:27:00;;;;;;;12.52;4.35;;;;;;;4.74;71.24;100968.88;5060984;28;20049;-66
2021/12/03 04:29:27;;;;;;;9.80;4.45;;;;;;;4.96;71.00;100974.94;5073652;28;20036;-65
2021/12/03 04:31:54;;;;;;;18.02;4.28;;;;;;;4.90;70.93;100991.59;5060911;28;20059;-66
2021/12/03 04:34:22;;;;;;;11.93;3.92;;;;;;;4.95;70.43;100994.31;5067962;28;20532;-65
2021/12/03 04:36:49;;;;;;;13.52;4.40;;;;;;;4.76;71.44;100996.69;5058679;28;20044;-66
2021/12/03 04:39:16;;;;;;;11.93;4.28;;;;;;;4.71;71.37;100984.97;5071670;28;20052;-65
2021/12/03 04:41:44;;;;;;;12.57;4.13;;;;;;;4.97;70.89;100967.56;5097775;28;20044;-66
2021/12/03 04:44:11;;;;;;;11.93;4.05;;;;;;;5.04;70.31;100984.50;5071101;28;20053;-66
2021/12/03 04:46:38;;;;;;;15.13;4.68;;;;;;;4.86;70.61;100974.91;5056984;28;20143;-67
2021/12/03 04:49:06;;;;;;;13.20;4.07;;;;;;;4.90;70.57;100967.00;5058219;28;20493;-67
2021/12/03 04:51:33;;;;;;;12.35;3.67;;;;;;;5.02;69.89;100973.03;5059267;28;20041;-67
2021/12/03 04:54:01;;;;;;;11.50;3.22;;;;;;;4.95;69.84;100978.72;5064214;28;20294;-67
2021/12/03 04:56:28;;;;;;;11.13;3.97;;;;;;;4.92;70.50;100981.19;5078478;28;20055;-66
2021/12/03 04:58:55;;;;;;;13.70;4.10;;;;;;;4.86;70.45;100982.28;5056222;28;20052;-66
2021/12/03 05:01:27;;;;;;;15.38;4.60;;;;;;;4.85;70.72;100975.16;5056797;28;20045;-66
2021/12/03 05:03:54;;;;;;;14.95;3.78;;;;;;;4.97;70.20;100986.69;5058142;28;20053;-66
2021/12/03 05:06:29;;;;;;;12.55;3.30;;;;;;;5.20;69.78;100967.03;5058249;28;20053;-66
2021/12/03 05:08:57;;;;;;;8.57;3.35;;;;;;;5.19;69.49;100973.59;5068128;28;20091;-66
2021/12/03 05:11:24;;;;;;;14.40;4.20;;;;;;;5.17;68.98;100960.22;5077817;28;20040;-66
2021/12/03 05:13:51;;;;;;;15.23;3.85;;;;;;;5.10;69.32;100948.75;5066708;28;20519;-66
2021/12/03 05:16:18;;;;;;;16.23;3.70;;;;;;;5.16;69.27;100946.84;5063713;28;20056;-66
2021/12/03 05:18:48;;;;;;;12.00;3.17;;;;;;;5.13;69.64;100936.44;5039909;28;20045;-66
2021/12/03 05:21:15;;;;;;;16.73;4.28;;;;;;;5.20;69.45;100931.53;5058094;28;20392;-65
2021/12/03 05:23:42;;;;;;;11.45;3.85;;;;;;;5.20;69.34;100926.91;5076451;28;20057;-66
2021/12/03 05:26:09;;;;;;;9.88;3.33;;;;;;;5.09;69.74;100927.19;5075601;28;20045;-67
2021/12/03 05:28:37;;;;;;;10.50;3.28;;;;;;;4.98;70.18;100937.28;5057190;28;20049;-67
2021/12/03 05:31:04;;;;;;;9.98;3.78;;;;;;;5.31;69.45;100939.47;5056245;28;20495;-67
2021/12/03 05:33:31;;;;;;;13.63;3.80;;;;;;;5.29;68.79;100935.38;5058098;28;20447;-66
2021/12/03 05:35:59;;;;;;;13.23;3.40;;;;;;;5.39;68.23;100924.44;5056381;28;20049;-66
2021/12/03 05:38:26;;;;;;;13.32;3.28;;;;;;;5.42;68.32;100916.50;5060844;28;20053;-66
2021/12/03 05:40:54;;;;;;;12.57;3.50;;;;;;;5.38;68.08;100925.53;5097792;28;20040;-66
2021/12/03 05:43:22;;;;;;;15.13;3.20;;;;;;;5.32;68.70;100923.88;5076626;28;20056;-67
2021/12/03 05:45:52;;;;;;;15.15;4.45;;;;;;;5.21;68.87;100925.81;5059825;28;20067;-67
2021/12/03 05:48:19;;;;;;;;;;;;;;;5.26;69.16;100920.38;5075827;28;20640;-66
2021/12/03 05:50:48;;;;;;;11.18;4.28;;;;;;;5.42;68.67;100921.97;5076799;28;19995;-66
2021/12/03 05:53:15;;;;;;;13.57;4.38;;;;;;;5.30;68.70;100926.91;5075761;28;20056;-66
2021/12/03 05:55:42;;;;;;;11.98;3.97;;;;;;;5.33;68.84;100920.09;5069805;28;20064;-66
2021/12/03 05:58:10;;;;;;;11.48;3.80;;;;;;;5.36;68.88;100925.81;5057147;28;20048;-67
2021/12/03 06:00:39;;;;;;;17.90;3.83;;;;;;;5.46;68.47;100909.41;5075022;28;20067;-67
2021/12/03 06:03:07;;;;;;;12.55;4.20;;;;;;;5.29;68.63;100906.16;5062207;28;20045;-67
2021/12/03 06:05:35;;;;;;;11.43;3.95;;;;;;;5.32;69.18;100891.94;5057174;28;20068;-66
2021/12/03 06:08:03;;;;;;;17.55;4.22;;;;;;;5.19;69.40;100884.31;5055923;28;20044;-67
2021/12/03 06:10:31;;;;;;;11.98;4.15;;;;;;;5.29;69.03;100867.94;5056742;28;20052;-67
2021/12/03 06:12:58;;;;;;;22.13;6.22;;;;;;;5.24;69.11;100876.13;5069703;28;20415;-66
2021/12/03 06:15:26;;;;;;;12.38;3.78;;;;;;;5.33;68.77;100879.13;5077796;28;20064;-67
2021/12/03 06:17:53;;;;;;;11.35;3.40;;;;;;;5.28;68.80;100885.38;5077111;28;20051;-66
2021/12/03 06:20:21;;;;;;;10.43;3.72;;;;;;;5.30;69.04;100893.34;5077104;28;20044;-66
2021/12/03 06:22:49;;;;;;;18.00;3.80;;;;;;;5.02;69.64;100897.41;5077004;28;20063;-66
2021/12/03 06:25:18;;;;;;;13.25;3.38;;;;;;;5.09;69.85;100894.44;5077010;28;20052;-66
2021/12/03 06:27:46;;;;;;;9.65;3.30;;;;;;;5.01;69.67;100898.50;5073419;28;20048;-67
2021/12/03 06:30:16;;;;;;;13.27;3.30;;;;;;;5.08;69.83;100900.97;5056866;28;20060;-66
2021/12/03 06:32:45;;;;;;;11.18;3.33;;;;;;;5.17;69.38;100902.88;5060275;28;20044;-67
2021/12/03 06:35:13;;;;;;;13.52;3.83;;;;;;;5.11;69.83;100898.50;5075093;28;20060;-66
2021/12/03 06:37:41;;;;;;;8.57;3.35;;;;;;;5.25;69.48;100902.31;5069345;28;20523;-66
2021/12/03 06:40:13;;;;;;;14.10;3.53;;;;;;;5.30;69.55;100899.59;5057167;28;20061;-66
2021/12/03 06:42:40;;;;;;;17.20;5.15;;;;;;;5.22;69.59;100891.13;5067839;28;20071;-67
2021/12/03 06:45:09;;;;;;;11.60;4.13;;;;;;;5.22;69.97;100889.22;5073417;28;20049;-66
2021/12/03 06:47:36;;;;;;;16.83;3.92;;;;;;;5.35;69.75;100904.25;5070970;28;20056;-66
2021/12/03 06:50:05;;;;;;;6.90;2.72;;;;;;;5.25;69.31;100905.06;5060571;28;20071;-67
2021/12/03 06:52:34;;;;;;;16.73;4.53;;;;;;;5.20;69.34;100894.13;5060807;28;20048;-66
2021/12/03 06:55:04;;;;;;;8.05;2.45;;;;;;;5.40;69.85;100896.03;5056472;28;20056;-67
2021/12/03 06:57:31;;;;;;;9.18;3.03;;;;;;;5.72;70.04;100893.78;5058451;28;20412;-67
2021/12/03 06:59:58;;;;;;;10.38;3.15;;;;;;;5.83;69.19;100891.88;5071109;28;20048;-67
2021/12/03 07:02:26;;;;;;;9.05;2.88;;;;;;;5.88;67.95;100891.84;5059726;28;20037;-66
2021/12/03 07:04:53;;;;;;;8.35;2.78;;;;;;;5.72;67.47;100891.88;5061464;28;20060;-68
2021/12/03 07:07:24;;;;;;;7.03;2.70;;;;;;;5.77;68.56;100898.44;5061710;28;20045;-68
2021/12/03 07:09:51;;;;;;;13.75;3.28;;;;;;;5.94;69.25;100897.06;5040317;28;20557;-68
2021/12/03 07:12:22;;;;;;;10.85;2.92;;;;;;;5.93;68.11;100886.41;5053948;28;20068;-68
2021/12/03 07:14:49;;;;;;;9.55;3.30;;;;;;;5.59;67.94;100888.91;5054796;28;20049;-67
2021/12/03 07:17:17;;;;;;;14.82;5.20;;;;;;;5.88;70.08;100884.50;5062415;28;20049;-67
2021/12/03 07:19:44;;;;;;;16.88;3.58;;;;;;;6.04;68.95;100874.31;5086147;28;20048;-67
2021/12/03 07:22:13;;;;;;;12.68;3.20;;;;;;;5.86;67.36;100880.41;5060358;28;20041;-65
2021/12/03 07:24:40;;;;;;;11.75;2.95;;;;;;;6.00;67.55;100871.31;5060022;28;20520;-68
2021/12/03 07:27:07;;;;;;;12.95;2.78;;;;;;;5.79;67.35;100861.53;5065897;28;20045;-67
2021/12/03 07:29:34;;;;;;;14.95;3.13;;;;;;;5.97;66.85;100863.69;5065955;28;20060;-66
2021/12/03 07:32:02;;;;;;;14.95;2.72;;;;;;;5.87;67.37;100866.47;5071250;28;20147;-67
2021/12/03 07:34:31;;;;;;;12.77;2.58;;;;;;;5.98;67.07;100870.78;5062812;28;20076;-65
2021/12/03 07:36:59;;;;;;;7.05;2.83;;;;;;;6.06;67.74;100870.22;5068502;28;20100;-68
2021/12/03 07:39:26;;;;;;;15.48;2.90;;;;;;;6.05;66.61;100874.03;5067733;28;20045;-67
2021/12/03 07:41:53;;;;;;;14.10;2.60;;;;;;;5.99;66.63;100880.63;5074649;28;20048;-67
2021/12/03 07:44:21;;;;;;;10.60;2.42;;;;;;;5.96;66.24;100875.72;5056594;28;20052;-67
2021/12/03 07:46:48;;;;;;;28.63;12.90;;;;;;;6.12;68.16;100882.75;5055674;28;20049;-66
2021/12/03 07:49:16;;;;;;;20.02;8.15;;;;;;;6.31;66.72;100882.97;5056054;28;20041;-65
2021/12/03 07:51:43;;;;;;;11.95;3.22;;;;;;;6.40;66.17;100875.78;5054942;28;20064;-67
2021/12/03 07:54:11;;;;;;;11.30;2.83;;;;;;;6.36;65.81;100882.94;5061121;28;20051;-66
2021/12/03 07:56:39;;;;;;;17.08;2.80;;;;;;;6.36;66.11;100872.78;5056826;28;20503;-66
2021/12/03 07:59:06;;;;;;;7.65;2.40;;;;;;;6.33;66.78;100870.63;5060980;28;20064;-67
2021/12/03 08:01:33;;;;;;;11.70;2.90;;;;;;;6.35;65.37;100875.81;5075026;28;20060;-68
2021/12/03 08:04:01;;;;;;;18.45;3.05;;;;;;;6.34;66.00;100875.00;5074036;28;20059;-67
2021/12/03 08:06:29;;;;;;;16.52;3.33;;;;;;;6.58;65.63;100878.69;5060723;28;20056;-67
2021/12/03 08:08:56;;;;;;;10.55;2.72;;;;;;;6.28;65.67;100881.59;5074237;28;20041;-66
2021/12/03 08:11:23;;;;;;;14.02;2.92;;;;;;;6.46;64.83;100874.66;5074725;28;20051;-66
2021/12/03 08:13:50;;;;;;;9.63;2.65;;;;;;;6.61;64.66;100872.66;5072902;28;20045;-67
2021/12/03 08:16:18;;;;;;;13.85;2.85;;;;;;;6.78;64.14;100872.28;5055483;28;20424;-67
2021/12/03 08:18:45;;;;;;;9.85;2.58;;;;;;;6.52;63.78;100873.53;5073477;28;20054;-66
2021/12/03 08:21:13;;;;;;;22.80;10.07;;;;;;;6.57;64.12;100871.56;5066620;28;20045;-65
2021/12/03 08:23:40;;;;;;;11.32;3.83;;;;;;;6.70;64.74;100862.75;5076821;28;20055;-68
2021/12/03 08:26:08;;;;;;;12.25;2.70;;;;;;;6.41;63.99;100874.69;5068335;28;20495;-66
2021/12/03 08:28:35;;;;;;;13.90;2.95;;;;;;;6.13;64.69;100868.00;5072340;28;20048;-66
2021/12/03 08:31:02;;;;;;;16.65;3.10;;;;;;;5.97;65.23;100871.06;5074475;28;20040;-66
2021/12/03 08:33:30;;;;;;;11.07;3.80;;;;;;;6.15;65.93;100863.06;5071104;28;20040;-64
2021/12/03 08:35:57;;;;;;;14.38;3.10;;;;;;;6.17;65.19;100874.53;5075084;28;20052;-65
2021/12/03 08:38:24;;;;;;;11.13;3.30;;;;;;;6.22;64.51;100876.44;5073422;28;20049;-64
2021/12/03 08:41:08;;;;;;;10.75;3.47;;;;;;;6.27;65.03;100873.66;5094681;28;20055;-66
2021/12/03 08:43:36;;;;;;;13.43;3.20;;;;;;;6.25;64.92;100881.34;5074823;28;20047;-65
2021/12/03 08:46:13;;;;;;;13.27;3.40;;;;;;;6.17;65.09;100874.53;5055956;28;20056;-66
2021/12/03 08:48:45;;;;;;;14.80;2.85;;;;;;;6.15;65.13;100874.00;5055217;28;20052;-64
2021/12/03 08:52:10;;;;;;;12.55;3.50;;;;;;;6.31;64.95;100867.34;5051750;28;20401;-65
2021/12/03 08:56:49;;;;;;;10.68;3.40;;;;;;;6.10;65.04;100876.75;5063392;28;20048;-65
2021/12/03 08:59:16;;;;;;;17.92;3.97;;;;;;;6.07;64.92;100880.03;5071968;28;20059;-64
2021/12/03 09:01:44;;;;;;;14.63;4.13;;;;;;;6.13;64.53;100872.63;5074850;28;20550;-65
2021/12/03 09:04:14;;;;;;;21.27;4.07;;;;;;;6.13;64.39;100869.91;5056426;28;20041;-65
2021/12/03 09:06:41;;;;;;;15.25;3.83;;;;;;;6.14;64.08;100871.53;5065974;28;20045;-65
2021/12/03 09:09:08;;;;;;;13.25;3.53;;;;;;;6.14;64.55;100872.34;5058931;28;20045;-65
2021/12/03 09:11:36;;;;;;;11.57;3.45;;;;;;;6.31;64.12;100872.81;5067049;28;20049;-65
2021/12/03 09:14:13;;;;;;;11.30;3.40;;;;;;;6.29;64.43;100872.31;5073678;28;20048;-66
2021/12/03 09:16:41;;;;;;;20.15;7.03;;;;;;;6.34;64.68;100866.81;5059097;28;20053;-65
2021/12/03 09:19:17;;;;;;;12.73;3.58;;;;;;;6.31;64.24;100861.88;5060983;28;20057;-65
2021/12/03 09:21:46;;;;;;;12.10;3.33;;;;;;;6.27;63.78;100857.25;5072806;28;20530;-65
2021/12/03 09:24:16;;;;;;;15.55;3.03;;;;;;;6.24;64.52;100855.09;5056915;28;20041;-65
2021/12/03 09:26:43;;;;;;;15.27;3.05;;;;;;;6.18;65.08;100854.28;5056296;28;20409;-65
2021/12/03 09:29:14;;;;;;;10.77;3.75;;;;;;;6.29;65.92;100852.31;5063932;28;20063;-64
2021/12/03 09:31:42;;;;;;;10.43;3.50;;;;;;;6.31;65.32;100845.47;5081229;28;20059;-65
2021/12/03 09:34:13;;;;;;;11.45;3.35;;;;;;;6.15;65.69;100840.38;5081706;28;20044;-66
2021/12/03 09:36:41;;;;;;;15.57;3.22;;;;;;;6.42;65.55;100827.06;5041085;28;20060;-66
2021/12/03 09:39:14;;;;;;;12.43;3.28;;;;;;;6.40;65.31;100830.09;5069739;28;20051;-66
2021/12/03 09:41:42;;;;;;;16.67;3.40;;;;;;;6.36;65.77;100826.28;5056096;28;20496;-66
2021/12/03 09:44:09;;;;;;;12.77;2.63;;;;;;;6.41;65.52;100828.19;5056286;28;20071;-66
2021/12/03 09:46:36;;;;;;;14.73;3.35;;;;;;;6.40;66.22;100821.06;5056245;28;20053;-65
2021/12/03 09:54:29;;;;;;;8.68;2.80;;;;;;;6.35;66.91;100829.31;5075119;28;20053;-67
2021/12/03 09:57:15;;;;;;;10.25;3.10;;;;;;;6.12;67.64;100825.31;5052136;28;20067;-66
2021/12/03 10:18:49;;;;;;;14.35;3.55;;;;;;;5.80;72.45;100807.69;5058089;28;20049;-67
2021/12/03 10:25:10;;;;;;;10.48;3.88;;;;;;;5.69;74.08;100790.50;5058015;28;20049;-68
2021/12/03 10:28:54;;;;;;;10.05;3.47;;;;;;;5.80;73.77;100783.09;5057972;28;20045;-67
2021/12/03 10:31:02;;;;;;;11.85;3.60;;;;;;;5.83;74.55;100771.63;5060654;28;20060;-66
2021/12/03 10:49:06;;;;;;;6.35;2.80;;;;;;;5.43;76.81;100737.06;5061741;28;20064;-67
2021/12/03 10:51:47;;;;;;;6.78;2.25;;;;;;;5.44;77.64;100738.72;5068583;28;20535;-67
2021/12/03 11:18:51;;;;;;;12.23;4.97;;;;;;;5.36;80.11;100706.50;5069804;28;20071;-66
2021/12/03 14:21:30;;;;;;;14.20;4.65;;;;;;;6.02;82.88;100346.94;5057316;28;20045;-65
2021/12/03 14:30:28;;;;;;;6.72;2.65;;;;;;;5.93;82.28;100337.75;5057175;28;20479;-64
2021/12/03 14:43:09;;;;;;;3.50;1.50;;;;;;;6.28;82.34;100304.47;5062323;28;20071;-64
2021/12/03 14:56:46;;;;;;;22.48;9.00;;;;;;;6.33;82.11;100285.25;5069771;28;20040;-64
2021/12/03 14:59:24;;;;;;;8.93;3.78;;;;;;;6.30;82.70;100279.56;5055950;28;20048;-65
2021/12/03 15:02:01;;;;;;;2.90;1.60;;;;;;;6.26;82.45;100270.34;5043202;28;20059;-65
2021/12/03 15:04:54;;;;;;;5.38;1.92;;;;;;;6.14;83.04;100262.56;5052844;28;20071;-64
2021/12/03 15:07:32;;;;;;;5.90;2.00;;;;;;;6.07;83.43;100264.03;5071623;28;20063;-64
2021/12/03 15:10:03;;;;;;;5.47;2.00;;;;;;;6.37;83.04;100269.06;5055341;28;20053;-63
2021/12/03 15:23:07;;;;;;;4.18;2.03;;;;;;;6.42;82.52;100266.25;5059048;28;20063;-64
2021/12/03 15:28:34;;;;;;;4.35;2.08;;;;;;;6.47;82.84;100264.25;5054421;28;20048;-64
2021/12/03 15:31:35;;;;;;;4.88;2.22;;;;;;;6.62;82.38;100260.47;5060818;28;20066;-64
2021/12/03 15:37:28;;;;;;;3.47;1.65;;;;;;;6.37;83.12;100253.47;5073560;28;20048;-64
2021/12/03 16:03:29;;;;;;;7.35;3.15;;;;;;;6.38;84.34;100221.47;5058577;28;20048;-63
2021/12/03 16:06:52;;;;;;;9.43;5.20;;;;;;;6.52;83.16;100206.72;5055756;28;20084;-64
2021/12/03 16:09:37;;;;;;;12.13;6.78;;;;;;;6.45;83.54;100200.81;5045895;28;20127;-63
2021/12/03 16:15:51;;;;;;;3.45;1.75;;;;;;;6.32;84.29;100193.41;5054150;28;20059;-65
2021/12/03 16:20:57;;;;;;;3.40;1.60;;;;;;;6.32;84.85;100184.38;5061101;28;20060;-64
2021/12/03 16:53:30;;;;;;;4.70;2.42;;;;;;;6.28;86.50;100118.53;5071128;28;20056;-72
2021/12/03 16:56:24;;;;;;;36.28;15.75;;;;;;;6.31;87.39;100112.44;5064710;28;20551;-66
2021/12/03 16:58:52;;;;;;;7.80;3.83;;;;;;;6.19;87.02;100105.84;5060402;28;20040;-70
2021/12/03 17:01:34;;;;;;;5.05;2.53;;;;;;;6.19;87.85;100111.31;5057011;28;20048;-64
2021/12/03 17:09:54;;;;;;;5.13;2.50;;;;;;;6.37;87.26;100092.09;5075206;28;20057;-64
2021/12/03 17:12:34;;;;;;;4.60;2.78;;;;;;;6.46;87.38;100087.56;5054984;28;20052;-65
2021/12/03 18:00:52;;;;;;;8.77;5.57;;;;;;;6.05;91.30;100014.78;5062721;28;20527;-68
2021/12/03 18:03:21;;;;;;;11.60;5.65;;;;;;;6.13;91.11;100003.94;5068234;28;20036;-65
2021/12/03 18:55:34;;;;;;;12.43;7.72;;;;;;;6.61;91.68;99909.44;5063931;28;20053;-66
2021/12/03 18:58:04;;;;;;;15.65;9.68;;;;;;;6.61;91.16;99905.88;5055236;28;20055;-67
2021/12/03 19:00:37;;;;;;;23.55;13.13;;;;;;;6.51;92.20;99901.44;5058448;28;20060;-67
2021/12/03 19:03:32;;;;;;;24.90;16.10;;;;;;;6.69;91.78;99899.69;5053648;28;20432;-67
2021/12/03 19:08:46;;;;;;;12.48;7.70;;;;;;;6.63;92.12;99893.53;5054949;28;20045;-65
2021/12/03 19:11:23;;;;;;;11.50;7.68;;;;;;;6.99;91.75;99885.28;5051421;28;20051;-65
2021/12/03 19:13:51;;;;;;;14.90;9.43;;;;;;;6.82;91.05;99887.88;5054769;28;20053;-66
2021/12/03 19:16:22;;;;;;;12.80;8.85;;;;;;;6.77;92.12;99880.63;5040125;28;20563;-66